Time;durP1;ratioP1;P1;durP2;ratioP2;P2;SDS_P1;SDS_P2;PMS_P1;PMS_P2;Temp;Humidity;BMP_temperature;BMP_pressure;BME280_temperature;BME280_humidity;BME280_pressure;Samples;Min_cycle;Max_cycle;Signal;HPM_P1;HPM_P2
2021/01/21 00:01:44;;;;;;;2.43;1.13;;;6.70;1.00;;;;;;5038302;28;20466;-75
2021/01/21 00:04:10;;;;;;;0.70;0.70;;;;;;;;;;5052333;28;20449;-76
2021/01/21 00:06:39;;;;;;;1.00;0.83;;;;;;;;;;5053553;28;20574;-76
2021/01/21 00:09:05;;;;;;;0.97;0.87;;;7.30;1.00;;;;;;5042749;28;20399;-76
2021/01/21 00:11:31;;;;;;;1.90;0.90;;;;;;;;;;5033608;28;20497;-76
2021/01/21 00:13:56;;;;;;;0.90;0.73;;;7.80;1.00;;;;;;5033415;28;20191;-76
2021/01/21 00:16:22;;;;;;;0.80;0.80;;;;;;;;;;5033259;28;20399;-76
2021/01/21 00:18:48;;;;;;;1.20;1.10;;;8.10;1.00;;;;;;5049541;28;20179;-76
2021/01/21 00:21:14;;;;;;;2.30;1.10;;;;;;;;;;5053137;28;20390;-75
2021/01/21 00:23:40;;;;;;;1.97;1.00;;;8.30;1.00;;;;;;5033216;28;20160;-75
2021/01/21 00:26:06;;;;;;;2.23;0.90;;;;;;;;;;5033540;28;20440;-76
2021/01/21 00:28:31;;;;;;;2.33;1.23;;;8.50;1.00;;;;;;5033266;28;20226;-76
2021/01/21 00:30:57;;;;;;;4.57;1.17;;;;;;;;;;5032894;28;20957;-76
2021/01/21 00:33:23;;;;;;;1.57;0.90;;;8.70;1.00;;;;;;5046210;28;20174;-75
2021/01/21 00:35:49;;;;;;;2.10;1.03;;;;;;;;;;5052975;28;20753;-76
2021/01/21 00:38:14;;;;;;;0.90;0.90;;;8.80;1.00;;;;;;5050093;28;20239;-76
2021/01/21 00:40:40;;;;;;;1.00;0.90;;;;;;;;;;5033446;28;20395;-75
2021/01/21 00:43:06;;;;;;;0.93;0.93;;;;;;;;;;5032823;28;20161;-75
2021/01/21 00:45:32;;;;;;;1.90;0.97;;;9.00;1.00;;;;;;5032883;28;20402;-76
2021/01/21 00:47:58;;;;;;;1.40;1.30;;;;;;;;;;5040905;28;20952;-76
2021/01/21 00:50:24;;;;;;;0.87;0.87;;;9.20;1.00;;;;;;5049300;28;20226;-76
2021/01/21 00:52:50;;;;;;;2.50;1.17;;;;;;;;;;5049528;28;20411;-76
2021/01/21 00:55:15;;;;;;;2.30;1.00;;;9.30;1.00;;;;;;5033188;28;20157;-75
2021/01/21 00:57:41;;;;;;;2.83;1.30;;;;;;;;;;5041071;28;20543;-75
2021/01/21 01:00:09;;;;;;;2.00;1.17;;;9.40;1.00;;;;;;5053026;28;20172;-75
2021/01/21 01:02:35;;;;;;;2.03;1.10;;;9.40;1.00;;;;;;5044593;28;20456;-76
2021/01/21 01:05:01;;;;;;;4.10;1.50;;;;;;;;;;5052718;28;20685;-75
2021/01/21 01:07:26;;;;;;;3.23;1.03;;;9.50;1.00;;;;;;5052649;28;20798;-75
2021/01/21 01:09:52;;;;;;;2.37;1.33;;;9.50;1.00;;;;;;5052441;28;20499;-75
2021/01/21 01:12:18;;;;;;;2.03;1.20;;;;;;;;;;5053026;28;20496;-75
2021/01/21 01:14:44;;;;;;;4.17;0.80;;;9.60;1.00;;;;;;5052608;28;20196;-75
2021/01/21 01:17:10;;;;;;;2.20;1.20;;;9.70;1.00;;;;;;5050365;28;20394;-76
2021/01/21 01:19:37;;;;;;;2.03;0.90;;;;;;;;;;5032613;28;20412;-76
2021/01/21 01:22:02;;;;;;;1.00;1.00;;;9.70;1.00;;;;;;5034970;28;20163;-75
2021/01/21 01:24:28;;;;;;;3.13;1.00;;;;;;;;;;5050031;28;20500;-75
2021/01/21 01:26:54;;;;;;;1.40;1.30;;;9.70;1.00;;;;;;5056881;28;20160;-76
2021/01/21 01:29:20;;;;;;;1.10;0.80;;;;;;;;;;5056263;28;20414;-75
2021/01/21 01:31:48;;;;;;;3.93;1.37;;;9.80;1.00;;;;;;5055458;28;20183;-75
2021/01/21 01:34:14;;;;;;;1.00;1.00;;;9.90;1.00;;;;;;5036893;28;20481;-76
2021/01/21 01:36:40;;;;;;;3.70;1.00;;;;;;;;;;5036363;28;20854;-75
2021/01/21 01:39:06;;;;;;;2.30;1.17;;;9.90;1.00;;;;;;5036256;28;20260;-75
2021/01/21 01:41:31;;;;;;;0.90;0.90;;;9.90;1.00;;;;;;5036634;28;20762;-75
2021/01/21 01:43:57;;;;;;;1.07;1.00;;;;;;;;;;5035835;28;20172;-76
2021/01/21 01:46:26;;;;;;;1.00;0.87;;;9.90;1.00;;;;;;5036086;28;20200;-76
2021/01/21 01:48:56;;;;;;;1.37;0.90;;;9.80;1.00;;;;;;5035040;28;20529;-75
2021/01/21 01:51:22;;;;;;;2.87;1.20;;;9.90;1.00;;;;;;5054379;28;20836;-75
2021/01/21 01:53:48;;;;;;;1.73;1.53;;;;;;;;;;5055809;28;20413;-75
2021/01/21 01:56:14;;;;;;;1.30;1.30;;;;;;;;;;5056176;28;20164;-74
2021/01/21 01:58:40;;;;;;;0.80;0.80;;;10.00;1.00;;;;;;5055628;28;20433;-75
2021/01/21 02:01:06;;;;;;;1.00;0.87;;;10.00;1.00;;;;;;5055780;28;20406;-75
2021/01/21 02:03:32;;;;;;;1.13;0.80;;;;;;;;;;5049765;28;20433;-75
2021/01/21 02:05:58;;;;;;;1.20;1.10;;;10.10;1.00;;;;;;5054456;28;20272;-75
2021/01/21 02:08:25;;;;;;;1.40;0.73;;;10.20;1.00;;;;;;5055685;28;20494;-75
2021/01/21 02:10:53;;;;;;;1.30;1.00;;;10.20;1.00;;;;;;5055542;28;20198;-75
2021/01/21 02:13:30;;;;;;;1.83;1.20;;;10.20;1.00;;;;;;5055828;28;20878;-75
2021/01/21 02:16:23;;;;;;;1.33;0.93;;;10.20;1.00;;;;;;5055146;28;20426;-75
2021/01/21 02:19:03;;;;;;;2.47;1.20;;;9.40;1.00;;;;;;5051374;28;20763;-74
2021/01/21 02:21:49;;;;;;;0.80;0.80;;;10.30;1.00;;;;;;5037232;28;20498;-74
2021/01/21 02:24:40;;;;;;;0.67;0.67;;;10.30;1.00;;;;;;5050753;28;20419;-75
2021/01/21 02:27:06;;;;;;;1.20;1.00;;;10.40;1.00;;;;;;5035802;28;20395;-76
2021/01/21 02:29:36;;;;;;;2.57;0.90;;;10.40;1.00;;;;;;5035260;28;20411;-74
2021/01/21 02:32:10;;;;;;;1.50;0.90;;;10.40;1.00;;;;;;5035429;28;21012;-74
2021/01/21 02:34:44;;;;;;;1.20;0.70;;;10.50;1.00;;;;;;5034584;28;20756;-75
2021/01/21 02:37:34;;;;;;;3.00;1.00;;;10.50;1.00;;;;;;5035138;28;20398;-75
2021/01/21 02:40:03;;;;;;;1.10;0.80;;;10.50;1.00;;;;;;5036587;28;20801;-75
2021/01/21 02:42:29;;;;;;;1.87;0.90;;;10.50;1.00;;;;;;5055318;28;20964;-76
2021/01/21 02:44:54;;;;;;;1.33;0.80;;;10.50;1.00;;;;;;5054457;28;20514;-76
2021/01/21 02:47:22;;;;;;;1.80;0.90;;;10.60;1.00;;;;;;5051310;28;20545;-76
2021/01/21 02:49:51;;;;;;;1.27;0.87;;;10.60;1.00;;;;;;5033788;28;20231;-76
2021/01/21 02:52:43;;;;;;;1.03;1.00;;;10.60;1.00;;;;;;5034801;28;20415;-75
2021/01/21 02:55:17;;;;;;;2.60;0.70;;;10.70;1.00;;;;;;5034894;28;20449;-76
2021/01/21 02:57:48;;;;;;;1.50;0.90;;;10.70;1.00;;;;;;5034986;28;20977;-75
2021/01/21 03:00:14;;;;;;;0.93;0.70;;;10.60;1.00;;;;;;5035306;28;20426;-75
2021/01/21 03:02:50;;;;;;;1.10;0.97;;;10.60;1.00;;;;;;5040833;28;20430;-75
2021/01/21 03:05:18;;;;;;;1.47;0.80;;;10.70;1.00;;;;;;5054648;28;20742;-75
2021/01/21 03:07:44;;;;;;;1.50;0.87;;;10.70;1.00;;;;;;5054494;28;20481;-74
2021/01/21 03:10:16;;;;;;;1.83;0.90;;;10.70;1.00;;;;;;5054403;28;20446;-75
2021/01/21 03:12:41;;;;;;;1.50;1.00;;;10.70;1.00;;;;;;5054602;28;20461;-76
2021/01/21 03:15:07;;;;;;;0.70;0.70;;;10.70;1.00;;;;;;5054406;28;20401;-76
2021/01/21 03:17:33;;;;;;;0.50;0.50;;;;;;;;;;5052503;28;20168;-76
2021/01/21 03:19:59;;;;;;;1.20;1.00;;;10.50;1.00;;;;;;5048697;28;20944;-76
2021/01/21 03:22:25;;;;;;;1.37;0.97;;;;;;;;;;5034539;28;20399;-76
2021/01/21 03:24:51;;;;;;;2.70;0.80;;;10.40;1.00;;;;;;5034374;28;20164;-76
2021/01/21 03:27:17;;;;;;;1.17;0.70;;;;;;;;;;5034694;28;20760;-75
2021/01/21 03:29:42;;;;;;;0.80;0.70;;;10.30;1.00;;;;;;5053584;28;20233;-76
2021/01/21 03:32:08;;;;;;;1.00;0.83;;;;;;;;;;5044858;28;20783;-75
2021/01/21 03:34:34;;;;;;;1.03;0.80;;;10.30;1.00;;;;;;5034072;28;20620;-75
2021/01/21 03:37:00;;;;;;;1.67;1.00;;;10.20;1.00;;;;;;5034040;28;20457;-76
2021/01/21 03:39:26;;;;;;;1.03;0.80;;;;;;;;;;5033784;28;20183;-76
2021/01/21 03:41:53;;;;;;;0.80;0.80;;;;;;;;;;5034550;28;20454;-75
2021/01/21 03:44:19;;;;;;;1.27;0.70;;;10.10;1.00;;;;;;5033095;28;20482;-76
2021/01/21 03:46:45;;;;;;;0.80;0.80;;;10.00;1.00;;;;;;5033882;28;20500;-76
2021/01/21 03:49:11;;;;;;;1.10;1.00;;;10.00;1.00;;;;;;5044877;28;20856;-76
2021/01/21 03:51:37;;;;;;;0.90;0.90;;;;;;;;;;5042758;28;20202;-76
2021/01/21 03:54:03;;;;;;;0.70;0.70;;;10.00;1.00;;;;;;5053570;28;20461;-75
2021/01/21 03:56:28;;;;;;;2.17;0.90;;;10.00;1.00;;;;;;5053761;28;20394;-76
2021/01/21 03:58:54;;;;;;;1.10;1.00;;;;;;;;;;5053743;28;20521;-76
2021/01/21 04:01:20;;;;;;;1.57;0.80;;;;;;;;;;5046628;28;20184;-76
2021/01/21 04:03:46;;;;;;;0.90;0.80;;;;;;;;;;5061158;28;20783;-75
2021/01/21 04:06:12;;;;;;;2.50;0.97;;;9.90;1.00;;;;;;5033487;28;20399;-76
2021/01/21 04:08:38;;;;;;;1.67;1.00;;;9.90;1.00;;;;;;5033460;28;20406;-76
2021/01/21 04:11:04;;;;;;;2.20;0.80;;;;;;;;;;5033551;28;20196;-76
2021/01/21 04:13:29;;;;;;;0.93;0.93;;;10.00;1.00;;;;;;5033709;28;20627;-76
2021/01/21 04:15:55;;;;;;;1.73;1.10;;;10.10;1.00;;;;;;5033139;28;20506;-75
2021/01/21 04:18:21;;;;;;;2.00;0.80;;;;;;;;;;5045525;28;20541;-75
2021/01/21 04:20:46;;;;;;;2.47;0.90;;;10.20;1.00;;;;;;5040935;28;20179;-75
2021/01/21 04:23:12;;;;;;;0.80;0.80;;;;;;;;;;5032013;28;20416;-75
2021/01/21 04:25:38;;;;;;;1.60;0.93;;;;;;;;;;5033270;28;20168;-75
2021/01/21 04:28:04;;;;;;;1.13;1.00;;;10.40;1.00;;;;;;5033575;28;20494;-75
2021/01/21 04:30:30;;;;;;;1.27;0.90;;;10.40;1.00;;;;;;5037186;28;20458;-75
2021/01/21 04:32:56;;;;;;;0.90;0.90;;;10.50;1.00;;;;;;5052814;28;20175;-75
2021/01/21 04:35:22;;;;;;;1.17;0.80;;;10.50;1.00;;;;;;5053081;28;20390;-76
2021/01/21 04:37:48;;;;;;;3.77;1.10;;;;;;;;;;5052992;28;20405;-75
2021/01/21 04:40:14;;;;;;;0.73;0.70;;;10.60;1.00;;;;;;5052865;28;20163;-76
2021/01/21 04:42:40;;;;;;;0.90;0.83;;;10.50;1.00;;;;;;5053225;28;20468;-75
2021/01/21 04:45:07;;;;;;;0.83;0.83;;;10.60;1.00;;;;;;5052378;28;20430;-76
2021/01/21 04:47:34;;;;;;;0.70;0.70;;;;;;;;;;5052655;28;20775;-76
2021/01/21 04:50:00;;;;;;;1.30;0.70;;;10.70;1.00;;;;;;5049432;28;20494;-75
2021/01/21 04:52:28;;;;;;;1.07;0.97;;;10.70;1.00;;;;;;5052709;28;20430;-76
2021/01/21 04:55:01;;;;;;;1.87;1.23;;;10.70;1.00;;;;;;5050168;28;20451;-76
2021/01/21 04:57:45;;;;;;;1.43;1.03;;;10.70;1.00;;;;;;5052306;28;20419;-76
2021/01/21 05:00:12;;;;;;;1.03;0.93;;;10.70;1.00;;;;;;5037247;28;20465;-76
2021/01/21 05:02:40;;;;;;;3.30;0.80;;;10.80;1.00;;;;;;5042429;28;20448;-74
2021/01/21 05:05:08;;;;;;;1.03;1.00;;;10.70;1.00;;;;;;5056804;28;20945;-76
2021/01/21 05:07:34;;;;;;;0.80;0.80;;;10.80;1.00;;;;;;5056896;28;20444;-76
2021/01/21 05:10:00;;;;;;;0.90;0.90;;;10.80;1.00;;;;;;5048383;28;20505;-76
2021/01/21 05:12:25;;;;;;;0.80;0.70;;;10.80;1.00;;;;;;5036929;28;20394;-75
2021/01/21 05:14:51;;;;;;;0.80;0.80;;;;;;;;;;5037052;28;20890;-76
2021/01/21 05:17:18;;;;;;;1.80;0.90;;;10.80;1.00;;;;;;5042086;28;20176;-76
2021/01/21 05:19:46;;;;;;;1.73;0.90;;;12.90;1.00;;;;;;5052929;28;20411;-75
2021/01/21 05:22:14;;;;;;;1.13;0.80;;;10.70;1.00;;;;;;5036728;28;20403;-75
2021/01/21 05:24:40;;;;;;;3.47;0.90;;;10.70;1.00;;;;;;5036709;28;20866;-76
2021/01/21 05:27:06;;;;;;;2.20;1.03;;;;;;;;;;5036649;28;20403;-76
2021/01/21 05:29:32;;;;;;;1.10;0.90;;;10.60;1.00;;;;;;5041365;28;20654;-75
2021/01/21 05:31:59;;;;;;;2.20;0.97;;;10.60;1.00;;;;;;5054487;28;20445;-75
2021/01/21 05:34:24;;;;;;;1.23;1.00;;;10.50;1.00;;;;;;5056321;28;20159;-76
2021/01/21 05:36:50;;;;;;;0.77;0.77;;;;;;;;;;5056128;28;20422;-75
2021/01/21 05:39:17;;;;;;;1.80;0.90;;;10.40;1.00;;;;;;5055947;28;20194;-75
2021/01/21 05:41:43;;;;;;;1.03;0.90;;;10.40;1.00;;;;;;5056176;28;20460;-75
2021/01/21 05:44:09;;;;;;;1.13;0.97;;;;;;;;;;5056065;28;20413;-74
2021/01/21 05:46:35;;;;;;;1.00;0.90;;;10.30;1.00;;;;;;5056044;28;20895;-75
2021/01/21 05:49:04;;;;;;;1.83;0.90;;;10.30;1.00;;;;;;5052725;28;20469;-75
2021/01/21 05:51:30;;;;;;;1.87;1.00;;;10.30;1.00;;;;;;5055621;28;20204;-75
2021/01/21 05:53:57;;;;;;;2.20;0.97;;;10.20;1.00;;;;;;5055813;28;20425;-75
2021/01/21 05:56:25;;;;;;;1.30;1.10;;;10.20;1.00;;;;;;5055929;28;20407;-75
2021/01/21 05:58:52;;;;;;;1.47;1.20;;;10.20;1.00;;;;;;5040840;28;20898;-76
2021/01/21 06:01:20;;;;;;;2.20;1.20;;;10.20;1.00;;;;;;5036052;28;20453;-76
2021/01/21 06:03:46;;;;;;;1.03;1.03;;;;;;;;;;5051712;28;20422;-76
2021/01/21 06:06:13;;;;;;;1.77;1.67;;;10.20;1.00;;;;;;5055636;28;20414;-76
2021/01/21 06:08:42;;;;;;;1.90;1.30;;;10.20;1.00;;;;;;5054618;28;20405;-76
2021/01/21 06:11:11;;;;;;;2.17;1.10;;;10.20;1.00;;;;;;5055580;28;20673;-75
2021/01/21 06:13:38;;;;;;;0.80;0.70;;;10.20;1.00;;;;;;5055887;28;20897;-75
2021/01/21 06:16:06;;;;;;;4.20;1.40;;;10.20;1.00;;;;;;5054672;28;20481;-75
2021/01/21 06:18:31;;;;;;;1.00;0.90;;;10.20;1.00;;;;;;5049209;28;20410;-75
2021/01/21 06:20:58;;;;;;;1.27;1.17;;;10.20;1.00;;;;;;5041478;28;20427;-75
2021/01/21 06:23:24;;;;;;;1.60;1.07;;;10.20;1.00;;;;;;5035605;28;20188;-76
2021/01/21 06:25:53;;;;;;;1.17;0.90;;;10.20;1.00;;;;;;5035554;28;20399;-76
2021/01/21 06:28:21;;;;;;;2.77;1.00;;;10.20;1.00;;;;;;5035820;28;20426;-75
2021/01/21 06:30:58;;;;;;;2.53;1.43;;;10.20;1.00;;;;;;5035370;28;20469;-75
2021/01/21 06:33:28;;;;;;;0.80;0.77;;;10.30;1.00;;;;;;5047643;28;20410;-75
2021/01/21 06:36:05;;;;;;;1.23;1.13;;;10.30;1.00;;;;;;5054907;28;20418;-75
2021/01/21 06:38:38;;;;;;;1.43;0.97;;;10.30;1.00;;;;;;5054850;28;20409;-75
2021/01/21 06:41:08;;;;;;;0.80;0.80;;;10.30;1.00;;;;;;5055024;28;20417;-75
2021/01/21 06:43:39;;;;;;;5.67;1.30;;;10.30;1.00;;;;;;5053357;28;20923;-75
2021/01/21 06:46:06;;;;;;;1.63;0.90;;;10.30;1.00;;;;;;5055049;28;20406;-76
2021/01/21 06:48:32;;;;;;;0.90;0.90;;;10.20;1.00;;;;;;5054848;28;20410;-76
2021/01/21 06:50:58;;;;;;;2.30;1.00;;;;;;;;;;5036224;28;20497;-75
2021/01/21 06:53:26;;;;;;;1.20;1.10;;;10.40;1.00;;;;;;5053402;28;20262;-76
2021/01/21 06:55:52;;;;;;;0.80;0.80;;;10.40;1.00;;;;;;5049165;28;20431;-76
2021/01/21 06:58:50;;;;;;;2.80;1.17;;;10.40;1.00;;;;;;5042877;28;20422;-76
2021/01/21 07:01:30;;;;;;;1.23;1.10;;;10.40;1.00;;;;;;5042361;28;20446;-74
2021/01/21 07:04:10;;;;;;;1.13;1.00;;;10.40;1.00;;;;;;5039307;28;20410;-76
2021/01/21 07:06:54;;;;;;;3.10;0.93;;;10.40;1.00;;;;;;5054417;28;20410;-75
2021/01/21 07:09:22;;;;;;;1.20;1.10;;;10.40;1.00;;;;;;5054358;28;20432;-76
2021/01/21 07:11:49;;;;;;;1.10;0.90;;;10.40;1.00;;;;;;5054268;28;20529;-75
2021/01/21 07:14:19;;;;;;;3.20;0.80;;;10.40;1.00;;;;;;5036972;28;20778;-75
2021/01/21 07:16:55;;;;;;;0.90;0.90;;;10.50;1.00;;;;;;5034289;28;20427;-75
2021/01/21 07:19:42;;;;;;;0.90;0.90;;;10.40;1.00;;;;;;5034421;28;20875;-76
2021/01/21 07:22:24;;;;;;;1.30;0.80;;;10.40;1.00;;;;;;5054591;28;20414;-75
2021/01/21 07:25:06;;;;;;;1.97;1.10;;;10.50;1.00;;;;;;5054064;28;20407;-75
2021/01/21 07:27:34;;;;;;;3.07;1.10;;;10.40;1.00;;;;;;5043429;28;20426;-76
2021/01/21 07:30:23;;;;;;;2.83;0.90;;;10.40;1.00;;;;;;5034413;28;20898;-75
2021/01/21 07:33:09;;;;;;;1.70;0.97;;;10.50;1.00;;;;;;5033930;28;20882;-74
2021/01/21 07:35:38;;;;;;;2.80;1.10;;;10.50;1.00;;;;;;5032625;28;20529;-76
2021/01/21 07:38:04;;;;;;;1.67;1.20;;;10.60;1.00;;;;;;5033726;28;20399;-76
2021/01/21 07:40:44;;;;;;;1.27;0.70;;;10.60;1.00;;;;;;5046538;28;20506;-76
2021/01/21 07:43:10;;;;;;;1.90;1.00;;;10.60;1.00;;;;;;5053647;28;20175;-75
2021/01/21 07:45:36;;;;;;;0.80;0.80;;;10.60;1.00;;;;;;5052807;28;20425;-76
2021/01/21 07:48:23;;;;;;;0.80;0.80;;;10.70;1.00;;;;;;5053708;28;20473;-75
2021/01/21 07:50:50;;;;;;;4.63;0.73;;;10.70;1.00;;;;;;5048681;28;20477;-74
2021/01/21 07:53:26;;;;;;;1.30;0.90;;;10.70;1.00;;;;;;5040371;28;20434;-75
2021/01/21 07:56:03;;;;;;;1.10;1.00;;;10.80;1.00;;;;;;5033361;28;20443;-75
2021/01/21 07:58:39;;;;;;;0.87;0.60;;;10.90;1.00;;;;;;5036811;28;20857;-76
2021/01/21 08:01:09;;;;;;;2.70;1.20;;;10.90;1.00;;;;;;5034098;28;20438;-76
2021/01/21 08:03:41;;;;;;;2.80;1.00;;;;;;;;;;5033113;28;20459;-82
2021/01/21 08:06:17;;;;;;;4.23;0.80;;;11.00;1.00;;;;;;5040738;28;20430;-76
2021/01/21 08:09:11;;;;;;;1.20;0.80;;;11.00;1.00;;;;;;5051704;28;20883;-77
2021/01/21 08:11:53;;;;;;;1.23;0.70;;;11.00;1.00;;;;;;5045393;28;20858;-76
2021/01/21 08:14:19;;;;;;;5.40;0.80;;;11.00;1.00;;;;;;5047790;28;20526;-76
2021/01/21 08:16:50;;;;;;;0.80;0.80;;;11.10;1.00;;;;;;5053964;28;20516;-75
2021/01/21 08:19:16;;;;;;;1.00;0.90;;;11.10;1.00;;;;;;5054012;28;20152;-75
2021/01/21 08:21:41;;;;;;;0.77;0.70;;;11.10;1.00;;;;;;5054080;28;20761;-74
2021/01/21 08:24:08;;;;;;;0.70;0.70;;;11.10;1.00;;;;;;5053658;28;20244;-75
2021/01/21 08:26:36;;;;;;;0.70;0.70;;;11.10;1.00;;;;;;5048696;28;20414;-76
2021/01/21 08:29:11;;;;;;;0.70;0.70;;;11.10;1.00;;;;;;5053085;28;20418;-84
2021/01/21 08:31:39;;;;;;;8.33;2.00;;;11.00;1.00;;;;;;5047780;28;20468;-75
2021/01/21 08:34:08;;;;;;;1.23;0.90;;;10.90;1.00;;;;;;5043768;28;20558;-75
2021/01/21 08:36:37;;;;;;;2.00;0.90;;;10.80;1.00;;;;;;5051616;28;20563;-75
2021/01/21 08:39:31;;;;;;;0.83;0.60;;;10.80;1.00;;;;;;5043791;28;20510;-75
2021/01/21 08:42:18;;;;;;;1.60;0.70;;;10.70;1.00;;;;;;5049379;28;20428;-75
2021/01/21 08:44:49;;;;;;;1.33;0.80;;;10.80;1.00;;;;;;5036260;28;20850;-75
2021/01/21 08:47:25;;;;;;;1.73;0.70;;;10.80;1.00;;;;;;5034371;28;20488;-77
2021/01/21 08:50:42;;;;;;;0.70;0.70;;;10.80;1.00;;;;;;5033582;28;20395;-76
2021/01/21 08:53:30;;;;;;;4.60;1.40;;;;;;;;;;5041437;28;20627;-76
2021/01/21 08:59:42;;;;;;;0.67;0.57;;;10.90;1.00;;;;;;5046458;28;20391;-76
2021/01/21 09:02:09;;;;;;;1.63;1.00;;;10.90;1.00;;;;;;5040813;28;20473;-75
2021/01/21 09:04:38;;;;;;;2.07;1.10;;;10.90;1.00;;;;;;5048328;28;20445;-75
2021/01/21 09:07:08;;;;;;;2.10;1.10;;;11.00;1.00;;;;;;5046469;28;20465;-75
2021/01/21 09:09:55;;;;;;;0.77;0.60;;;10.90;1.00;;;;;;5035019;28;20422;-76
2021/01/21 09:12:58;;;;;;;5.13;0.67;;;11.00;1.00;;;;;;5053184;28;20414;-76
2021/01/21 09:18:47;;;;;;;0.63;0.60;;;11.00;1.00;;;;;;5049184;28;20747;-76
2021/01/21 09:21:54;;;;;;;0.63;0.63;;;11.00;1.00;;;;;;5053569;28;20500;-76
2021/01/21 09:25:01;;;;;;;1.27;0.80;;;11.10;1.00;;;;;;5035174;28;20423;-76
2021/01/21 09:27:39;;;;;;;1.10;0.63;;;11.10;1.00;;;;;;5042384;28;20935;-76
2021/01/21 09:30:23;;;;;;;0.70;0.60;;;11.10;1.00;;;;;;5037913;28;20475;-77
2021/01/21 09:32:49;;;;;;;0.70;0.70;;;11.10;1.00;;;;;;5032224;28;21136;-76
2021/01/21 09:35:37;;;;;;;0.60;0.60;;;11.30;1.00;;;;;;5038260;28;20426;-77
2021/01/21 09:41:48;;;;;;;2.30;0.80;;;11.40;1.00;;;;;;5051181;28;20401;-76
2021/01/21 09:44:43;;;;;;;0.90;0.90;;;11.50;1.00;;;;;;5041288;28;20425;-77
2021/01/21 09:47:30;;;;;;;1.43;0.70;;;11.40;1.00;;;;;;5054275;28;20432;-76
2021/01/21 09:53:17;;;;;;;0.73;0.73;;;11.40;1.00;;;;;;5048177;28;20466;-76
2021/01/21 09:56:12;;;;;;;1.60;0.67;;;11.30;1.00;;;;;;5053559;28;20536;-76
2021/01/21 10:02:36;;;;;;;0.60;0.53;;;11.00;1.00;;;;;;5036164;28;20422;-76
2021/01/21 10:05:24;;;;;;;1.10;0.80;;;10.80;1.00;;;;;;5040347;28;20458;-76
2021/01/21 10:07:50;;;;;;;1.80;0.70;;;;;;;;;;5051226;28;20418;-77
2021/01/21 10:11:00;;;;;;;0.60;0.60;;;10.60;1.00;;;;;;5039813;28;20468;-77
2021/01/21 10:14:18;;;;;;;0.70;0.70;;;10.50;1.00;;;;;;5037965;28;20415;-77
2021/01/21 10:17:30;;;;;;;1.03;0.60;;;10.20;1.00;;;;;;5036657;28;20399;-77
2021/01/21 10:20:38;;;;;;;0.90;0.80;;;10.00;1.00;;;;;;5040098;28;20410;-77
2021/01/21 10:26:37;;;;;;;0.50;0.50;;;9.80;1.00;;;;;;5055717;28;21030;-77
2021/01/21 10:36:36;;;;;;;0.60;0.60;;;9.50;1.00;;;;;;5054925;28;20958;-78
2021/01/21 10:39:07;;;;;;;0.97;0.60;;;9.30;1.00;;;;;;5039155;28;20415;-77
2021/01/21 10:41:43;;;;;;;0.93;0.57;;;9.50;1.00;;;;;;5042390;28;20418;-76
2021/01/21 10:44:13;;;;;;;5.33;0.90;;;9.20;1.00;;;;;;5043676;28;20418;-77
2021/01/21 10:46:39;;;;;;;0.50;0.50;;;9.20;1.00;;;;;;5036085;28;20792;-76
2021/01/21 10:49:05;;;;;;;0.40;0.40;;;9.40;1.00;;;;;;5034422;28;20829;-76
2021/01/21 10:52:01;;;;;;;2.93;0.60;;;9.30;1.00;;;;;;5035446;28;20446;-76
2021/01/21 10:54:31;;;;;;;3.73;0.50;;;9.40;1.00;;;;;;5034529;28;20508;-76
2021/01/21 10:57:01;;;;;;;0.57;0.57;;;9.40;1.00;;;;;;5035206;28;20475;-77
2021/01/21 11:00:06;;;;;;;0.70;0.50;;;9.40;1.00;;;;;;5050797;28;20414;-77
2021/01/21 11:02:32;;;;;;;1.63;0.60;;;9.50;1.00;;;;;;5049115;28;20478;-76
2021/01/21 11:04:58;;;;;;;0.57;0.50;;;;;;;;;;5036410;28;20451;-76
2021/01/21 11:07:23;;;;;;;1.97;0.63;;;9.50;1.00;;;;;;5041286;28;20511;-77
2021/01/21 11:09:49;;;;;;;0.80;0.50;;;;;;;;;;5045494;28;20411;-76
2021/01/21 11:12:16;;;;;;;0.73;0.47;;;9.70;1.00;;;;;;5034529;28;20567;-76
2021/01/21 11:14:42;;;;;;;6.00;0.80;;;;;;;;;;5034776;28;20419;-77
2021/01/21 11:17:08;;;;;;;0.80;0.60;;;10.00;1.00;;;;;;5050754;28;20406;-77
2021/01/21 11:19:34;;;;;;;0.50;0.50;;;;;;;;;;5054529;28;20713;-77
2021/01/21 11:21:59;;;;;;;0.90;0.43;;;10.00;1.00;;;;;;5054559;28;20179;-77
2021/01/21 11:24:25;;;;;;;0.53;0.50;;;;;;;;;;5053873;28;20831;-76
2021/01/21 11:26:51;;;;;;;1.63;0.50;;;10.00;1.00;;;;;;5049292;28;20259;-77
2021/01/21 11:29:17;;;;;;;7.87;0.80;;;;;;;;;;5044034;28;20993;-76
2021/01/21 11:31:43;;;;;;;0.50;0.50;;;;;;;;;;5051718;28;20226;-76
2021/01/21 11:34:09;;;;;;;0.40;0.40;;;;;;;;;;5034798;28;20400;-76
2021/01/21 11:36:35;;;;;;;0.90;0.60;;;9.80;1.00;;;;;;5047600;28;20940;-76
2021/01/21 11:39:01;;;;;;;1.43;0.63;;;9.70;1.00;;;;;;5033587;28;20489;-77
2021/01/21 11:41:27;;;;;;;0.70;0.40;;;;;;;;;;5033979;28;20399;-77
2021/01/21 11:43:53;;;;;;;0.40;0.40;;;;;;;;;;5036924;28;20213;-77
2021/01/21 11:46:19;;;;;;;1.80;0.47;;;;;;;;;;5050680;28;20475;-76
2021/01/21 11:48:45;;;;;;;1.20;0.43;;;;;;;;;;5054018;28;20399;-76
2021/01/21 11:51:11;;;;;;;1.10;0.40;;;9.80;1.00;;;;;;5038734;28;20497;-77
2021/01/21 11:53:37;;;;;;;3.80;0.60;;;;;;;;;;5047273;28;20471;-76
2021/01/21 11:56:03;;;;;;;0.50;0.50;;;;;;;;;;5033640;28;20164;-76
2021/01/21 11:58:29;;;;;;;0.60;0.50;;;;;;;;;;5050413;28;20395;-76
2021/01/21 12:00:54;;;;;;;0.50;0.50;;;9.70;1.00;;;;;;5053509;28;20401;-76
2021/01/21 12:03:21;;;;;;;1.07;0.40;;;;;;;;;;5053852;28;20414;-76
2021/01/21 12:05:47;;;;;;;1.57;0.40;;;;;;;;;;5038875;28;20558;-76
2021/01/21 12:08:13;;;;;;;0.80;0.40;;;;;;;;;;5053103;28;20434;-76
2021/01/21 12:10:38;;;;;;;0.47;0.47;;;9.60;1.00;;;;;;5052868;28;20511;-77
2021/01/21 12:13:04;;;;;;;1.40;0.50;;;;;;;;;;5053307;28;20481;-77
2021/01/21 12:15:30;;;;;;;1.23;0.50;;;9.70;1.00;;;;;;5053372;28;20489;-76
2021/01/21 12:17:56;;;;;;;2.27;0.40;;;;;;;;;;5053088;28;20422;-77
2021/01/21 12:20:22;;;;;;;0.50;0.50;;;;;;;;;;5039669;28;20245;-76
2021/01/21 12:22:49;;;;;;;0.40;0.40;;;9.80;1.00;;;;;;5036327;28;20960;-77
2021/01/21 12:25:14;;;;;;;1.90;0.40;;;9.80;1.00;;;;;;5044226;28;20443;-76
2021/01/21 12:27:40;;;;;;;0.40;0.40;;;9.90;1.00;;;;;;5041681;28;20464;-75
2021/01/21 12:30:06;;;;;;;0.40;0.40;;;9.90;1.00;;;;;;5035737;28;20266;-75
2021/01/21 12:32:32;;;;;;;0.50;0.40;;;10.00;1.00;;;;;;5048027;28;20230;-75
2021/01/21 12:34:58;;;;;;;2.10;0.40;;;;;;;;;;5038871;28;20406;-76
2021/01/21 12:37:24;;;;;;;0.40;0.40;;;;;;;;;;5052850;28;20168;-75
2021/01/21 12:39:50;;;;;;;3.50;0.57;;;9.80;1.00;;;;;;5052583;28;20777;-76
2021/01/21 12:42:16;;;;;;;0.60;0.50;;;;;;;;;;5052691;28;20406;-77
2021/01/21 12:44:42;;;;;;;0.90;0.57;;;;;;;;;;5036080;28;20180;-77
2021/01/21 12:47:11;;;;;;;1.13;0.47;;;9.60;1.00;;;;;;5041336;28;20418;-76
2021/01/21 12:49:36;;;;;;;1.90;0.40;;;9.50;1.00;;;;;;5038255;28;20414;-77
2021/01/21 12:52:02;;;;;;;0.43;0.40;;;9.40;1.00;;;;;;5052757;28;20460;-77
2021/01/21 12:54:28;;;;;;;1.03;0.40;;;;;;;;;;5033239;28;20616;-76
2021/01/21 12:56:54;;;;;;;0.60;0.30;;;9.50;1.00;;;;;;5036585;28;20398;-77
2021/01/21 12:59:22;;;;;;;1.70;0.40;;;9.50;1.00;;;;;;5052718;28;20421;-75
2021/01/21 13:01:53;;;;;;;0.70;0.50;;;9.50;1.00;;;;;;5049347;28;20238;-77
2021/01/21 13:04:19;;;;;;;0.50;0.37;;;;;;;;;;5033534;28;20427;-76
2021/01/21 13:06:45;;;;;;;0.40;0.40;;;;;;;;;;5035223;28;20433;-77
2021/01/21 13:09:11;;;;;;;3.03;0.40;;;;;;;;;;5044807;28;20465;-75
2021/01/21 13:11:37;;;;;;;1.53;0.43;;;;;;;;;;5048171;28;20462;-76
2021/01/21 13:14:03;;;;;;;1.03;0.40;;;;;;;;;;5044515;28;20513;-76
2021/01/21 13:16:28;;;;;;;2.63;0.70;;;9.80;1.00;;;;;;5052071;28;20489;-77
2021/01/21 13:18:54;;;;;;;0.47;0.40;;;9.90;1.00;;;;;;5056574;28;20444;-75
2021/01/21 13:21:22;;;;;;;0.40;0.40;;;;;;;;;;5056727;28;20229;-77
2021/01/21 13:23:48;;;;;;;1.53;0.50;;;9.90;1.00;;;;;;5056541;28;20171;-76
2021/01/21 13:26:14;;;;;;;0.60;0.50;;;;;;;;;;5056489;28;20402;-75
2021/01/21 13:28:40;;;;;;;2.03;0.73;;;9.90;1.00;;;;;;5056167;28;20168;-76
2021/01/21 13:31:05;;;;;;;0.40;0.37;;;9.90;1.00;;;;;;5055817;28;20476;-77
2021/01/21 13:33:31;;;;;;;0.40;0.30;;;9.80;1.00;;;;;;5056769;28;20164;-76
2021/01/21 13:35:57;;;;;;;0.57;0.57;;;;;;;;;;5056316;28;20523;-75
2021/01/21 13:38:28;;;;;;;0.63;0.43;;;9.80;1.00;;;;;;5050776;28;20185;-76
2021/01/21 13:40:54;;;;;;;0.40;0.40;;;9.90;1.00;;;;;;5036326;28;20406;-76
2021/01/21 13:43:20;;;;;;;1.93;0.50;;;;;;;;;;5036201;28;20398;-76
2021/01/21 13:45:46;;;;;;;0.40;0.40;;;;;;;;;;5036082;28;20161;-76
2021/01/21 13:48:12;;;;;;;1.10;0.70;;;9.80;1.00;;;;;;5036145;28;20398;-76
2021/01/21 13:50:38;;;;;;;1.53;0.50;;;;;;;;;;5036113;28;20450;-76
2021/01/21 13:53:03;;;;;;;1.57;0.70;;;9.80;1.00;;;;;;5034844;28;20244;-76
2021/01/21 13:55:29;;;;;;;1.90;0.60;;;;;;;;;;5036034;28;20454;-75
2021/01/21 13:57:55;;;;;;;0.50;0.40;;;;;;;;;;5048138;28;20222;-76
2021/01/21 14:00:21;;;;;;;0.40;0.40;;;9.80;1.00;;;;;;5055882;28;20481;-76
2021/01/21 14:02:47;;;;;;;0.60;0.40;;;;;;;;;;5056064;28;20410;-76
2021/01/21 14:05:13;;;;;;;3.33;0.60;;;9.90;1.00;;;;;;5055946;28;20877;-75
2021/01/21 14:07:39;;;;;;;2.10;0.80;;;;;;;;;;5055777;28;20391;-75
2021/01/21 14:10:05;;;;;;;0.60;0.50;;;9.80;1.00;;;;;;5055656;28;20521;-76